createdAt,value
2022-12-13T00:01:48.019Z,8.30
2022-12-13T00:04:16.333Z,9.55
2022-12-13T00:06:44.867Z,9.27
2022-12-13T00:09:14.984Z,8.55
2022-12-13T00:11:42.988Z,8.23
2022-12-13T00:14:11.609Z,9.65
2022-12-13T00:16:39.491Z,8.77
2022-12-13T00:19:08.826Z,8.38
2022-12-13T00:21:36.738Z,9.45
2022-12-13T00:24:07.655Z,9.57
2022-12-13T00:26:35.551Z,9.45
2022-12-13T00:29:05.788Z,8.27
2022-12-13T00:34:23.401Z,9.15
2022-12-13T00:36:51.215Z,9.00
2022-12-13T00:39:19.299Z,8.95
2022-12-13T00:41:47.920Z,8.57
2022-12-13T00:44:16.182Z,9.02
2022-12-13T00:46:44.073Z,8.15
2022-12-13T00:49:13.015Z,7.70
2022-12-13T00:51:42.357Z,8.48
2022-12-13T00:54:11.761Z,8.05
2022-12-13T00:56:39.673Z,8.35
2022-12-13T00:59:07.620Z,8.88
2022-12-13T01:01:37.656Z,7.75
2022-12-13T01:04:06.947Z,8.70
2022-12-13T01:06:38.005Z,7.88
2022-12-13T01:09:11.069Z,8.07
2022-12-13T01:14:06.725Z,7.18
2022-12-13T01:16:34.690Z,6.75
2022-12-13T01:19:02.565Z,7.30
2022-12-13T01:21:30.414Z,7.50
2022-12-13T01:24:03.346Z,7.88
2022-12-13T01:26:33.213Z,7.95
2022-12-13T01:29:02.325Z,6.95
2022-12-13T01:31:30.393Z,7.72
2022-12-13T01:33:58.864Z,8.23
2022-12-13T01:36:27.153Z,9.35
2022-12-13T01:38:58.118Z,8.88
2022-12-13T01:41:27.781Z,9.25
2022-12-13T01:44:01.112Z,9.13
2022-12-13T01:46:30.006Z,9.90
2022-12-13T01:49:19.323Z,9.40
2022-12-13T01:51:52.524Z,9.73
2022-12-13T01:54:33.226Z,9.53
2022-12-13T01:57:03.171Z,8.18
2022-12-13T01:59:33.535Z,8.57
2022-12-13T02:02:01.473Z,9.10
2022-12-13T02:04:33.119Z,8.38
2022-12-13T02:07:02.308Z,9.13
2022-12-13T02:09:30.428Z,8.85
2022-12-13T02:11:59.110Z,8.40
2022-12-13T02:14:26.957Z,8.63
2022-12-13T02:17:05.985Z,8.55
2022-12-13T02:20:21.367Z,7.90
2022-12-13T02:23:10.198Z,8.90
2022-12-13T02:26:08.186Z,8.98
2022-12-13T02:28:56.433Z,8.68
2022-12-13T02:31:33.819Z,9.25
2022-12-13T02:34:08.622Z,9.23
2022-12-13T02:36:43.270Z,9.35
2022-12-13T02:39:16.457Z,9.00
2022-12-13T02:42:02.977Z,9.63
2022-12-13T02:47:06.739Z,9.30
2022-12-13T02:49:46.943Z,9.80
2022-12-13T02:52:22.592Z,9.20
2022-12-13T02:54:50.782Z,11.13
2022-12-13T02:57:33.831Z,10.85
2022-12-13T03:00:04.347Z,9.85
2022-12-13T03:02:44.210Z,9.35
2022-12-13T03:05:42.353Z,11.02
2022-12-13T03:08:21.518Z,9.70
2022-12-13T03:11:00.150Z,10.25
2022-12-13T03:13:36.404Z,9.48
2022-12-13T03:16:11.402Z,10.07
2022-12-13T03:18:41.851Z,10.07
2022-12-13T03:21:10.688Z,10.27
2022-12-13T03:23:39.238Z,9.65
2022-12-13T03:26:11.323Z,10.02
2022-12-13T03:28:40.194Z,9.90
2022-12-13T03:31:08.852Z,9.90
2022-12-13T03:33:38.785Z,10.98
2022-12-13T03:36:09.636Z,9.65
2022-12-13T03:38:38.292Z,10.45
2022-12-13T03:41:09.988Z,10.00
2022-12-13T03:43:38.842Z,9.95
2022-12-13T03:46:07.382Z,9.57
2022-12-13T03:48:35.449Z,9.45
2022-12-13T03:51:03.629Z,9.43
2022-12-13T03:53:34.611Z,9.13
2022-12-13T03:56:04.854Z,10.02
2022-12-13T03:58:36.325Z,9.38
2022-12-13T04:01:07.464Z,10.15
2022-12-13T04:03:35.612Z,8.82
2022-12-13T04:06:03.532Z,8.80
2022-12-13T04:08:32.957Z,9.45
2022-12-13T04:11:20.911Z,9.48
2022-12-13T04:13:47.792Z,9.50
2022-12-13T04:16:15.718Z,9.48
2022-12-13T04:18:43.621Z,9.65
2022-12-13T04:21:11.497Z,10.05
2022-12-13T04:23:40.754Z,10.18
2022-12-13T04:26:08.601Z,9.30
2022-12-13T04:28:36.441Z,10.13
2022-12-13T04:31:04.520Z,9.82
2022-12-13T04:33:33.384Z,9.80
2022-12-13T04:36:01.479Z,10.00
2022-12-13T04:38:29.404Z,9.48
2022-12-13T04:41:07.785Z,8.70
2022-12-13T04:43:35.852Z,9.25
2022-12-13T04:46:03.787Z,10.00
2022-12-13T04:48:32.431Z,9.93
2022-12-13T04:51:00.977Z,8.77
2022-12-13T04:53:29.639Z,8.90
2022-12-13T04:55:57.624Z,9.52
2022-12-13T04:58:26.990Z,9.48
2022-12-13T05:00:54.967Z,8.82
2022-12-13T05:03:23.324Z,9.07
2022-12-13T05:05:51.432Z,9.60
2022-12-13T05:08:19.351Z,8.98
2022-12-13T05:10:47.498Z,9.23
2022-12-13T05:13:15.373Z,9.77
2022-12-13T05:15:44.578Z,9.15
2022-12-13T05:18:12.461Z,9.75
2022-12-13T05:20:40.859Z,8.52
2022-12-13T05:23:08.745Z,8.77
2022-12-13T05:25:37.541Z,8.85
2022-12-13T05:28:27.285Z,8.52
2022-12-13T05:30:56.581Z,8.45
2022-12-13T05:33:25.533Z,8.77
2022-12-13T05:35:59.010Z,9.35
2022-12-13T05:38:27.943Z,8.13
2022-12-13T05:40:55.846Z,8.95
2022-12-13T05:43:24.265Z,8.50
2022-12-13T05:46:13.399Z,8.10
2022-12-13T05:48:41.928Z,8.55
2022-12-13T05:51:11.988Z,8.35
2022-12-13T05:53:41.457Z,8.60
2022-12-13T05:56:10.835Z,8.13
2022-12-13T05:58:40.135Z,8.63
2022-12-13T06:01:10.224Z,8.65
2022-12-13T06:03:40.152Z,8.30
2022-12-13T06:06:10.493Z,8.00
2022-12-13T06:08:38.733Z,9.35
2022-12-13T06:11:10.613Z,9.15
2022-12-13T06:13:42.335Z,8.68
2022-12-13T06:16:23.380Z,9.13
2022-12-13T06:19:01.273Z,9.32
2022-12-13T06:21:44.073Z,9.65
2022-12-13T06:24:15.523Z,8.13
2022-12-13T06:26:45.232Z,10.05
2022-12-13T06:29:24.494Z,9.40
2022-12-13T06:32:02.358Z,9.90
2022-12-13T06:34:37.107Z,9.73
2022-12-13T06:37:06.982Z,9.70
2022-12-13T06:39:35.570Z,9.55
2022-12-13T06:42:06.023Z,9.68
2022-12-13T06:44:34.161Z,9.68
2022-12-13T06:47:11.402Z,9.88
2022-12-13T06:49:44.099Z,10.75
2022-12-13T06:52:15.067Z,9.90
2022-12-13T06:54:44.212Z,10.07
2022-12-13T06:57:12.914Z,10.77
2022-12-13T06:59:41.643Z,10.27
2022-12-13T07:02:24.560Z,11.15
2022-12-13T07:07:22.787Z,9.85
2022-12-13T07:09:50.726Z,10.23
2022-12-13T07:12:19.288Z,10.80
2022-12-13T07:14:47.171Z,11.15
2022-12-13T07:17:33.118Z,11.27
2022-12-13T07:20:07.762Z,10.18
2022-12-13T07:22:42.949Z,10.90
2022-12-13T07:25:28.561Z,11.40
2022-12-13T07:28:01.138Z,10.85
2022-12-13T07:32:58.387Z,10.50
2022-12-13T07:35:27.657Z,11.18
2022-12-13T07:37:55.517Z,11.95
2022-12-13T07:40:24.343Z,11.10
2022-12-13T07:42:52.696Z,11.45
2022-12-13T07:45:20.724Z,11.70
2022-12-13T07:47:48.603Z,11.02
2022-12-13T07:50:24.776Z,12.75
2022-12-13T07:52:54.823Z,12.13
2022-12-13T07:55:33.033Z,12.48
2022-12-13T07:58:07.635Z,11.75
2022-12-13T08:03:04.396Z,11.35
2022-12-13T08:05:38.919Z,11.07
2022-12-13T08:08:11.734Z,12.35
2022-12-13T08:10:39.855Z,11.75
2022-12-13T08:13:07.738Z,11.57
2022-12-13T08:15:35.656Z,12.60
2022-12-13T08:18:04.105Z,12.68
2022-12-13T08:21:51.746Z,11.90
2022-12-13T08:23:59.271Z,12.20
2022-12-13T08:26:27.095Z,12.35
2022-12-13T08:28:55.015Z,12.38
2022-12-13T08:31:23.011Z,12.57
2022-12-13T08:33:50.899Z,11.93
2022-12-13T08:36:19.387Z,11.95
2022-12-13T08:38:47.539Z,14.23
2022-12-13T08:41:16.910Z,13.65
2022-12-13T08:43:45.349Z,13.43
2022-12-13T08:46:13.384Z,13.40
2022-12-13T08:48:44.571Z,11.65
2022-12-13T08:51:24.668Z,12.82
2022-12-13T08:53:54.351Z,12.82
2022-12-13T08:56:43.668Z,13.88
2022-12-13T08:59:11.784Z,11.75
2022-12-13T09:01:44.185Z,13.00
2022-12-13T09:04:12.106Z,12.10
2022-12-13T09:06:42.590Z,11.68
2022-12-13T09:09:10.556Z,11.32
2022-12-13T09:11:41.840Z,11.70
2022-12-13T09:14:14.027Z,11.05
2022-12-13T09:16:42.400Z,11.98
2022-12-13T09:19:25.108Z,12.23
2022-12-13T09:22:02.331Z,11.00
2022-12-13T09:24:36.587Z,12.15
2022-12-13T09:27:09.389Z,12.32
2022-12-13T09:29:38.470Z,11.82
2022-12-13T09:32:07.005Z,11.23
2022-12-13T09:34:35.034Z,11.60
2022-12-13T09:37:02.973Z,11.25
2022-12-13T09:39:31.171Z,11.18
2022-12-13T09:42:01.184Z,12.27
2022-12-13T09:44:45.340Z,11.38
2022-12-13T09:47:23.087Z,11.63
2022-12-13T09:49:53.781Z,11.85
2022-12-13T09:52:24.728Z,11.13
2022-12-13T09:54:55.149Z,10.75
2022-12-13T09:57:32.003Z,10.00
2022-12-13T10:00:05.862Z,9.45
2022-12-13T10:02:46.272Z,9.98
2022-12-13T10:05:23.002Z,10.02
2022-12-13T10:07:54.188Z,8.60
2022-12-13T10:10:22.855Z,9.68
2022-12-13T10:12:57.198Z,9.18
2022-12-13T10:15:27.416Z,9.57
2022-12-13T10:17:56.110Z,9.85
2022-12-13T10:20:28.909Z,10.20
2022-12-13T10:23:31.244Z,11.15
2022-12-13T10:25:51.790Z,10.68
2022-12-13T10:28:27.406Z,10.27
2022-12-13T10:30:59.093Z,10.32
2022-12-13T10:33:30.516Z,9.70
2022-12-13T10:36:14.703Z,9.93
2022-12-13T10:38:45.504Z,9.57
2022-12-13T10:41:35.043Z,9.50
2022-12-13T10:44:15.852Z,9.60
2022-12-13T10:46:51.698Z,9.18
2022-12-13T10:49:22.690Z,9.23
2022-12-13T10:51:52.052Z,10.00
2022-12-13T10:54:27.470Z,10.35
2022-12-13T10:57:00.265Z,10.15
2022-12-13T10:59:33.918Z,10.27
2022-12-13T11:02:21.406Z,9.43
2022-12-13T11:04:49.659Z,10.50
2022-12-13T11:07:29.908Z,9.43
2022-12-13T11:10:04.974Z,10.73
2022-12-13T11:12:34.333Z,9.60
2022-12-13T11:15:07.443Z,9.48
2022-12-13T11:20:16.581Z,8.40
2022-12-13T11:22:45.284Z,8.70
2022-12-13T11:25:23.158Z,8.82
2022-12-13T11:28:05.677Z,9.48
2022-12-13T11:31:04.284Z,8.52
2022-12-13T11:33:48.926Z,9.38
2022-12-13T11:36:27.614Z,8.93
2022-12-13T11:39:07.358Z,8.65
2022-12-13T11:41:39.609Z,8.90
2022-12-13T11:44:16.308Z,8.77
2022-12-13T11:46:47.600Z,8.13
2022-12-13T11:49:19.026Z,8.77
2022-12-13T11:51:51.686Z,8.48
2022-12-13T11:54:28.169Z,8.60
2022-12-13T11:57:00.569Z,8.30
2022-12-13T11:59:40.303Z,8.20
2022-12-13T12:02:17.718Z,8.43
2022-12-13T12:04:54.925Z,8.35
2022-12-13T12:07:33.591Z,8.85
2022-12-13T12:10:16.116Z,7.38
2022-12-13T12:12:48.366Z,8.25
2022-12-13T12:15:26.974Z,8.83
2022-12-13T12:17:55.838Z,8.73
2022-12-13T12:20:40.579Z,8.75
2022-12-13T12:23:15.447Z,7.25
2022-12-13T12:25:52.368Z,8.35
2022-12-13T12:28:29.528Z,8.52
2022-12-13T12:31:09.946Z,7.72
2022-12-13T12:33:47.957Z,9.15
2022-12-13T12:36:35.261Z,9.05
2022-12-13T12:39:26.346Z,7.90
2022-12-13T12:42:14.587Z,8.30
2022-12-13T12:44:52.802Z,8.38
2022-12-13T12:48:39.837Z,7.97
2022-12-13T12:50:36.505Z,8.63
2022-12-13T12:53:17.976Z,9.25
2022-12-13T12:55:56.071Z,8.35
2022-12-13T12:58:30.161Z,8.18
2022-12-13T13:01:15.441Z,8.32
2022-12-13T13:03:44.597Z,8.20
2022-12-13T13:06:16.426Z,8.63
2022-12-13T13:08:55.369Z,8.00
2022-12-13T13:11:25.903Z,8.13
2022-12-13T13:14:08.229Z,8.40
2022-12-13T13:16:38.506Z,8.00
2022-12-13T13:19:07.169Z,10.90
2022-12-13T13:21:43.339Z,8.63
2022-12-13T13:24:24.987Z,8.35
2022-12-13T13:26:55.885Z,8.23
2022-12-13T13:29:38.310Z,8.68
2022-12-13T13:32:30.332Z,7.82
2022-12-13T13:35:53.498Z,7.63
2022-12-13T13:38:53.333Z,8.63
2022-12-13T13:41:56.601Z,7.95
2022-12-13T13:44:56.215Z,7.65
2022-12-13T13:47:41.999Z,7.50
2022-12-13T13:50:43.430Z,7.30
2022-12-13T13:53:36.088Z,8.20
2022-12-13T13:56:24.264Z,7.68
2022-12-13T13:59:30.630Z,7.85
2022-12-13T14:02:44.892Z,7.78
2022-12-13T14:06:03.836Z,6.97
2022-12-13T14:08:42.069Z,7.72
2022-12-13T14:11:46.333Z,8.02
2022-12-13T14:15:04.856Z,7.35
2022-12-13T14:18:21.493Z,7.80
2022-12-13T14:21:07.467Z,7.18
2022-12-13T14:23:48.748Z,8.30
2022-12-13T14:26:51.611Z,6.75
2022-12-13T14:29:24.667Z,8.57
2022-12-13T14:31:52.567Z,8.60
2022-12-13T14:34:25.370Z,8.45
2022-12-13T14:36:59.391Z,7.97
2022-12-13T14:39:29.463Z,8.13
2022-12-13T14:41:59.729Z,8.50
2022-12-13T14:44:30.432Z,7.22
2022-12-13T14:47:01.210Z,7.22
2022-12-13T14:49:33.745Z,7.97
2022-12-13T14:52:06.422Z,7.18
2022-12-13T14:54:42.510Z,8.68
2022-12-13T14:57:18.248Z,8.48
2022-12-13T14:59:50.430Z,8.23
2022-12-13T15:02:31.057Z,8.87
2022-12-13T15:05:02.959Z,8.15
2022-12-13T15:07:35.728Z,9.05
2022-12-13T15:10:09.058Z,9.23
2022-12-13T15:12:42.278Z,9.05
2022-12-13T15:15:23.191Z,9.52
2022-12-13T15:18:07.167Z,9.88
2022-12-13T15:20:58.415Z,8.88
2022-12-13T15:23:32.903Z,9.98
2022-12-13T15:26:10.967Z,8.70
2022-12-13T15:28:44.606Z,9.02
2022-12-13T15:31:13.766Z,7.85
2022-12-13T15:33:48.407Z,13.35
2022-12-13T15:36:22.049Z,9.55
2022-12-13T15:41:23.850Z,9.25
2022-12-13T15:43:55.647Z,7.85
2022-12-13T15:46:27.753Z,9.52
2022-12-13T15:48:57.852Z,9.95
2022-12-13T15:51:28.871Z,9.48
2022-12-13T15:54:08.537Z,9.65
2022-12-13T15:56:37.934Z,9.85
2022-12-13T15:59:16.986Z,9.85
2022-12-13T16:01:57.885Z,9.57
2022-12-13T16:05:05.301Z,10.45
2022-12-13T16:07:56.192Z,9.77
2022-12-13T16:10:52.680Z,10.13
2022-12-13T16:13:27.896Z,8.95
2022-12-13T16:15:59.759Z,10.65
2022-12-13T16:18:32.912Z,9.90
2022-12-13T16:21:01.219Z,11.10
2022-12-13T16:23:30.700Z,10.25
2022-12-13T16:25:58.736Z,11.75
2022-12-13T16:28:26.641Z,10.00
2022-12-13T16:31:05.167Z,10.93
2022-12-13T16:33:33.398Z,10.68
2022-12-13T16:36:01.689Z,11.10
2022-12-13T16:38:30.988Z,10.60
2022-12-13T16:41:08.641Z,9.90
2022-12-13T16:43:41.139Z,10.32
2022-12-13T16:47:13.270Z,11.20
2022-12-13T16:49:02.817Z,10.13
2022-12-13T16:51:30.732Z,11.60
2022-12-13T16:53:59.926Z,11.48
2022-12-13T16:56:28.460Z,11.25
2022-12-13T16:58:56.319Z,12.02
2022-12-13T17:01:26.122Z,11.02
2022-12-13T17:03:55.927Z,10.55
2022-12-13T17:06:25.565Z,11.82
2022-12-13T17:08:53.445Z,11.10
2022-12-13T17:11:22.714Z,11.50
2022-12-13T17:13:50.716Z,10.50
2022-12-13T17:16:18.871Z,10.73
2022-12-13T17:18:46.835Z,12.15
2022-12-13T17:21:14.900Z,11.15
2022-12-13T17:23:42.836Z,11.70
2022-12-13T17:26:12.732Z,11.18
2022-12-13T17:28:41.967Z,11.27
2022-12-13T17:31:12.241Z,10.93
2022-12-13T17:33:40.609Z,11.27
2022-12-13T17:36:10.408Z,11.30
2022-12-13T17:38:39.383Z,10.50
2022-12-13T17:41:07.309Z,11.93
2022-12-13T17:43:35.892Z,10.15
2022-12-13T17:46:07.044Z,11.18
2022-12-13T17:48:41.072Z,11.52
2022-12-13T17:51:10.712Z,11.00
2022-12-13T17:53:41.294Z,11.23
2022-12-13T17:56:12.047Z,11.13
2022-12-13T17:58:40.453Z,11.45
2022-12-13T18:01:17.981Z,11.68
2022-12-13T18:03:47.872Z,11.75
2022-12-13T18:06:16.532Z,11.15
2022-12-13T18:08:45.415Z,10.20
2022-12-13T18:11:32.458Z,11.30
2022-12-13T18:14:02.604Z,10.48
2022-12-13T18:16:36.916Z,11.20
2022-12-13T18:19:07.413Z,10.80
2022-12-13T18:21:37.119Z,10.98
2022-12-13T18:24:06.994Z,11.75
2022-12-13T18:26:35.578Z,11.50
2022-12-13T18:29:04.464Z,11.63
2022-12-13T18:31:33.964Z,10.57
2022-12-13T18:34:02.223Z,10.50
2022-12-13T18:36:30.315Z,11.63
2022-12-13T18:38:58.319Z,11.52
2022-12-13T18:41:28.458Z,12.07
2022-12-13T18:43:59.796Z,11.65
2022-12-13T18:46:28.773Z,11.82
2022-12-13T18:48:58.583Z,11.73
2022-12-13T18:51:27.624Z,11.70
2022-12-13T18:53:56.519Z,11.88
2022-12-13T18:56:25.543Z,12.05
2022-12-13T18:58:53.958Z,12.35
2022-12-13T19:01:22.857Z,12.48
2022-12-13T19:03:52.292Z,11.40
2022-12-13T19:06:24.253Z,12.68
2022-12-13T19:08:54.039Z,11.77
2022-12-13T19:11:22.169Z,12.68
2022-12-13T19:13:50.675Z,12.15
2022-12-13T19:16:21.286Z,13.52
2022-12-13T19:18:49.662Z,11.85
2022-12-13T19:21:20.305Z,13.43
2022-12-13T19:23:56.547Z,12.13
2022-12-13T19:26:25.675Z,11.95
2022-12-13T19:28:53.610Z,12.48
2022-12-13T19:31:25.566Z,12.13
2022-12-13T19:33:58.892Z,12.30
2022-12-13T19:36:26.890Z,11.80
2022-12-13T19:38:57.126Z,12.02
2022-12-13T19:41:25.135Z,12.52
2022-12-13T19:43:54.157Z,11.38
2022-12-13T19:46:22.785Z,11.75
2022-12-13T19:48:51.214Z,12.82
2022-12-13T19:51:19.399Z,11.55
2022-12-13T19:53:47.376Z,12.20
2022-12-13T19:56:18.970Z,12.55
2022-12-13T19:58:48.261Z,12.55
2022-12-13T20:01:17.243Z,11.88
2022-12-13T20:03:46.917Z,12.52
2022-12-13T20:06:17.359Z,12.30
2022-12-13T20:08:45.985Z,11.95
2022-12-13T20:11:17.200Z,11.98
2022-12-13T20:13:45.139Z,12.43
2022-12-13T20:16:17.203Z,12.35
2022-12-13T20:18:45.968Z,12.80
2022-12-13T20:21:15.677Z,13.30
2022-12-13T20:23:49.241Z,13.95
2022-12-13T20:26:34.523Z,10.55
2022-12-13T20:29:02.431Z,11.65
2022-12-13T20:31:32.391Z,11.23
2022-12-13T20:34:02.319Z,11.32
2022-12-13T20:36:31.563Z,11.88
2022-12-13T20:39:02.664Z,11.57
2022-12-13T20:41:33.034Z,10.55
2022-12-13T20:44:04.725Z,11.27
2022-12-13T20:46:32.994Z,11.93
2022-12-13T20:49:05.006Z,10.45
2022-12-13T20:51:34.468Z,11.40
2022-12-13T20:54:02.709Z,11.30
2022-12-13T20:56:35.220Z,12.30
2022-12-13T20:59:05.396Z,12.18
2022-12-13T21:01:36.147Z,11.02
2022-12-13T21:04:06.089Z,10.93
2022-12-13T21:06:36.122Z,18.77
2022-12-13T21:09:06.138Z,12.05
2022-12-13T21:11:36.115Z,11.30
2022-12-13T21:14:10.082Z,11.15
2022-12-13T21:16:42.890Z,11.00
2022-12-13T21:19:14.171Z,12.10
2022-12-13T21:21:42.131Z,11.02
2022-12-13T21:24:12.115Z,11.07
2022-12-13T21:26:40.237Z,11.60
2022-12-13T21:29:11.011Z,11.60
2022-12-13T21:31:40.000Z,10.80
2022-12-13T21:34:08.526Z,11.50
2022-12-13T21:36:38.164Z,10.65
2022-12-13T21:39:08.139Z,10.73
2022-12-13T21:41:36.290Z,10.90
2022-12-13T21:44:04.298Z,11.00
2022-12-13T21:47:10.268Z,11.75
2022-12-13T21:49:22.053Z,11.23
2022-12-13T21:51:50.553Z,11.40
2022-12-13T21:54:19.014Z,10.90
2022-12-13T21:57:04.284Z,10.45
2022-12-13T21:59:32.227Z,11.15
2022-12-13T22:02:18.812Z,11.60
2022-12-13T22:04:48.773Z,10.25
2022-12-13T22:07:19.041Z,12.02
2022-12-13T22:09:48.006Z,11.93
2022-12-13T22:12:21.815Z,12.13
2022-12-13T22:14:50.583Z,13.27
2022-12-13T22:17:29.742Z,11.70
2022-12-13T22:20:02.985Z,11.80
2022-12-13T22:22:32.174Z,10.95
2022-12-13T22:25:00.145Z,11.77
2022-12-13T22:27:28.232Z,11.98
2022-12-13T22:29:57.875Z,12.27
2022-12-13T22:32:29.488Z,12.20
2022-12-13T22:34:58.088Z,11.32
2022-12-13T22:37:26.291Z,11.98
2022-12-13T22:39:54.380Z,11.35
2022-12-13T22:42:22.618Z,12.25
2022-12-13T22:44:50.949Z,11.25
2022-12-13T22:47:19.459Z,12.75
2022-12-13T22:49:49.205Z,11.40
2022-12-13T22:52:17.433Z,12.50
2022-12-13T22:54:45.392Z,11.52
2022-12-13T22:57:13.383Z,12.35
2022-12-13T22:59:41.378Z,11.82
2022-12-13T23:02:09.944Z,12.13
2022-12-13T23:04:38.026Z,12.75
2022-12-13T23:07:10.175Z,13.20
2022-12-13T23:09:38.185Z,12.13
2022-12-13T23:12:24.477Z,13.27
2022-12-13T23:14:52.435Z,12.38
2022-12-13T23:17:20.355Z,12.23
2022-12-13T23:19:53.689Z,12.73
2022-12-13T23:22:25.118Z,12.82
2022-12-13T23:24:54.105Z,13.10
2022-12-13T23:27:25.297Z,11.90
2022-12-13T23:29:53.327Z,11.93
2022-12-13T23:32:21.311Z,12.63
2022-12-13T23:34:49.230Z,11.82
2022-12-13T23:37:17.501Z,11.27
2022-12-13T23:39:46.672Z,11.57
2022-12-13T23:42:14.703Z,11.07
2022-12-13T23:44:43.110Z,10.38
2022-12-13T23:47:11.121Z,11.45
2022-12-13T23:49:38.952Z,11.90
2022-12-13T23:52:06.850Z,11.98
2022-12-13T23:54:34.704Z,11.48
2022-12-13T23:57:04.078Z,11.35
2022-12-13T23:59:32.054Z,11.52
